createdAt,value
2023-05-09T00:00:49.721Z,18.76
2023-05-09T00:03:16.388Z,18.78
2023-05-09T00:05:44.260Z,18.63
2023-05-09T00:08:11.104Z,18.71
2023-05-09T00:10:39.135Z,18.65
2023-05-09T00:13:06.335Z,18.61
2023-05-09T00:15:32.930Z,18.71
2023-05-09T00:17:59.584Z,18.19
2023-05-09T00:20:26.421Z,18.48
2023-05-09T00:22:52.977Z,18.54
2023-05-09T00:25:19.851Z,18.68
2023-05-09T00:27:46.589Z,18.47
2023-05-09T00:30:13.192Z,18.95
2023-05-09T00:32:41.413Z,18.33
2023-05-09T00:35:10.359Z,18.95
2023-05-09T00:37:37.159Z,18.62
2023-05-09T00:40:06.363Z,18.64
2023-05-09T00:42:33.543Z,19.16
2023-05-09T00:45:00.586Z,19.08
2023-05-09T00:47:29.689Z,18.62
2023-05-09T00:49:58.408Z,18.65
2023-05-09T00:52:26.348Z,18.79
2023-05-09T00:54:54.465Z,19.19
2023-05-09T00:57:22.272Z,19.16
2023-05-09T00:59:49.432Z,18.93
2023-05-09T01:02:17.827Z,18.75
2023-05-09T01:04:48.969Z,18.80
2023-05-09T01:07:25.375Z,18.84
2023-05-09T01:10:33.455Z,19.00
2023-05-09T01:13:22.283Z,18.87
2023-05-09T01:16:08.898Z,18.92
2023-05-09T01:18:47.199Z,18.91
2023-05-09T01:21:20.707Z,18.84
2023-05-09T01:24:04.000Z,18.93
2023-05-09T01:26:49.509Z,18.84
2023-05-09T01:29:38.267Z,19.03
2023-05-09T01:32:10.049Z,18.81
2023-05-09T01:34:39.061Z,19.06
2023-05-09T01:37:08.632Z,18.87
2023-05-09T01:39:40.632Z,19.15
2023-05-09T01:42:09.671Z,18.78
2023-05-09T01:44:40.259Z,18.56
2023-05-09T01:47:08.767Z,19.23
2023-05-09T01:49:38.470Z,19.09
2023-05-09T01:52:10.372Z,18.64
2023-05-09T01:54:39.011Z,19.33
2023-05-09T01:57:08.097Z,18.36
2023-05-09T01:59:36.897Z,18.95
2023-05-09T02:02:04.108Z,18.91
2023-05-09T02:04:31.964Z,18.58
2023-05-09T02:07:01.785Z,18.95
2023-05-09T02:09:28.491Z,18.70
2023-05-09T02:11:55.189Z,18.85
2023-05-09T02:14:21.970Z,18.28
2023-05-09T02:16:48.745Z,18.46
2023-05-09T02:19:17.447Z,18.54
2023-05-09T02:21:44.100Z,18.52
2023-05-09T02:24:11.674Z,18.99
2023-05-09T02:26:39.367Z,18.55
2023-05-09T02:29:07.624Z,18.24
2023-05-09T02:31:35.964Z,18.08
2023-05-09T02:34:04.905Z,18.19
2023-05-09T02:36:32.718Z,18.57
2023-05-09T02:39:00.143Z,18.29
2023-05-09T02:41:29.565Z,18.09
2023-05-09T02:43:56.380Z,18.21
2023-05-09T02:46:23.082Z,18.03
2023-05-09T02:48:49.767Z,17.77
2023-05-09T02:51:16.298Z,17.98
2023-05-09T02:53:43.239Z,17.95
2023-05-09T02:56:10.856Z,18.01
2023-05-09T02:58:38.752Z,18.51
2023-05-09T03:01:05.537Z,18.38
2023-05-09T03:03:34.597Z,18.03
2023-05-09T03:06:01.840Z,18.44
2023-05-09T03:08:32.774Z,18.64
2023-05-09T03:10:59.675Z,18.06
2023-05-09T03:13:26.349Z,17.94
2023-05-09T03:15:52.951Z,17.58
2023-05-09T03:18:19.529Z,17.95
2023-05-09T03:20:46.062Z,18.00
2023-05-09T03:23:12.643Z,18.00
2023-05-09T03:25:39.191Z,18.10
2023-05-09T03:28:05.626Z,17.99
2023-05-09T03:30:33.501Z,17.71
2023-05-09T03:33:00.334Z,17.85
2023-05-09T03:35:27.166Z,17.93
2023-05-09T03:37:53.902Z,17.80
2023-05-09T03:40:22.003Z,17.81
2023-05-09T03:42:48.640Z,18.09
2023-05-09T03:45:15.379Z,17.49
2023-05-09T03:47:44.282Z,17.82
2023-05-09T03:50:10.921Z,17.75
2023-05-09T03:52:37.739Z,17.74
2023-05-09T03:55:05.991Z,17.76
2023-05-09T03:57:34.818Z,17.82
2023-05-09T04:00:02.084Z,17.71
2023-05-09T04:02:31.234Z,17.71
2023-05-09T04:04:58.031Z,17.37
2023-05-09T04:07:24.998Z,17.38
2023-05-09T04:09:51.717Z,17.59
2023-05-09T04:12:18.423Z,17.58
2023-05-09T04:14:48.125Z,17.27
2023-05-09T04:17:15.527Z,17.39
2023-05-09T04:19:42.115Z,17.66
2023-05-09T04:22:08.936Z,17.69
2023-05-09T04:24:35.894Z,17.59
2023-05-09T04:27:02.538Z,17.45
2023-05-09T04:29:29.248Z,17.32
2023-05-09T04:31:56.202Z,17.27
2023-05-09T04:34:22.880Z,17.44
2023-05-09T04:36:49.557Z,17.54
2023-05-09T04:39:16.068Z,17.43
2023-05-09T04:41:44.649Z,17.69
2023-05-09T04:44:11.293Z,18.61
2023-05-09T04:46:38.112Z,18.44
2023-05-09T04:49:04.777Z,18.90
2023-05-09T04:51:31.668Z,18.81
2023-05-09T04:53:58.469Z,18.54
2023-05-09T04:56:25.041Z,18.90
2023-05-09T04:58:52.713Z,18.63
2023-05-09T05:01:19.509Z,18.43
2023-05-09T05:03:46.062Z,18.66
2023-05-09T05:06:12.566Z,18.84
2023-05-09T05:08:39.181Z,19.34
2023-05-09T05:11:05.742Z,18.42
2023-05-09T05:13:32.429Z,19.58
2023-05-09T05:15:59.204Z,19.90
2023-05-09T05:18:26.060Z,19.26
2023-05-09T05:20:52.716Z,20.12
2023-05-09T05:23:19.405Z,21.31
2023-05-09T05:25:46.159Z,20.24
2023-05-09T05:28:12.770Z,19.77
2023-05-09T05:30:40.896Z,20.02
2023-05-09T05:33:07.733Z,20.34
2023-05-09T05:35:34.335Z,19.80
2023-05-09T05:38:01.061Z,19.72
2023-05-09T05:40:27.674Z,19.79
2023-05-09T05:42:54.479Z,19.94
2023-05-09T05:45:22.075Z,19.95
2023-05-09T05:47:49.092Z,21.01
2023-05-09T05:50:16.274Z,20.08
2023-05-09T05:52:44.858Z,20.94
2023-05-09T05:55:11.507Z,19.99
2023-05-09T05:57:39.758Z,21.01
2023-05-09T06:00:11.380Z,21.08
2023-05-09T06:02:38.494Z,21.34
2023-05-09T06:05:07.478Z,21.06
2023-05-09T06:07:35.749Z,21.20
2023-05-09T06:10:02.458Z,22.22
2023-05-09T06:12:29.333Z,21.43
2023-05-09T06:14:56.236Z,21.40
2023-05-09T06:17:25.666Z,22.10
2023-05-09T06:19:52.741Z,23.09
2023-05-09T06:22:20.954Z,23.02
2023-05-09T06:24:47.504Z,24.09
2023-05-09T06:27:14.130Z,24.35
2023-05-09T06:29:40.728Z,23.30
2023-05-09T06:32:08.769Z,22.84
2023-05-09T06:34:35.428Z,24.01
2023-05-09T06:37:01.937Z,23.85
2023-05-09T06:39:29.151Z,25.94
2023-05-09T06:41:55.651Z,28.62
2023-05-09T06:44:22.159Z,23.74
2023-05-09T06:46:49.862Z,24.76
2023-05-09T06:49:17.495Z,24.58
2023-05-09T06:51:44.522Z,23.81
2023-05-09T06:54:12.620Z,24.23
2023-05-09T06:56:39.287Z,22.19
2023-05-09T06:59:05.888Z,24.42
2023-05-09T07:01:32.449Z,25.34
2023-05-09T07:03:59.654Z,25.65
2023-05-09T07:06:26.212Z,23.13
2023-05-09T07:08:52.917Z,22.70
2023-05-09T07:11:19.594Z,23.87
2023-05-09T07:13:46.302Z,22.61
2023-05-09T07:16:13.255Z,22.84
2023-05-09T07:18:40.566Z,23.87
2023-05-09T07:21:07.602Z,24.18
2023-05-09T07:23:34.238Z,26.48
2023-05-09T07:26:01.570Z,24.32
2023-05-09T07:28:29.577Z,25.17
2023-05-09T07:30:56.749Z,24.62
2023-05-09T07:33:23.534Z,24.83
2023-05-09T07:35:50.472Z,27.02
2023-05-09T07:38:17.113Z,28.84
2023-05-09T07:40:43.859Z,27.20
2023-05-09T07:43:10.670Z,27.07
2023-05-09T07:45:37.253Z,25.65
2023-05-09T07:48:05.715Z,23.44
2023-05-09T07:50:33.519Z,23.08
2023-05-09T07:53:00.285Z,24.84
2023-05-09T07:55:26.920Z,25.09
2023-05-09T07:57:53.654Z,23.76
2023-05-09T08:00:24.373Z,23.06
2023-05-09T08:02:52.261Z,24.55
2023-05-09T08:05:19.009Z,24.92
2023-05-09T08:07:47.260Z,24.44
2023-05-09T08:10:13.962Z,24.28
2023-05-09T08:12:40.747Z,24.25
2023-05-09T08:15:07.992Z,23.49
2023-05-09T08:17:35.714Z,22.74
2023-05-09T08:20:02.514Z,23.52
2023-05-09T08:22:29.456Z,23.38
2023-05-09T08:24:56.089Z,22.55
2023-05-09T08:27:22.723Z,23.07
2023-05-09T08:29:49.600Z,21.47
2023-05-09T08:32:17.035Z,22.37
2023-05-09T08:34:44.646Z,22.03
2023-05-09T08:37:12.914Z,21.94
2023-05-09T08:39:41.767Z,22.60
2023-05-09T08:42:11.115Z,22.23
2023-05-09T08:44:38.708Z,22.29
2023-05-09T08:47:05.604Z,22.48
2023-05-09T08:49:33.499Z,21.73
2023-05-09T08:52:00.563Z,23.07
2023-05-09T08:54:29.334Z,22.69
2023-05-09T08:56:56.484Z,23.52
2023-05-09T08:59:24.287Z,23.22
2023-05-09T09:01:52.394Z,24.00
2023-05-09T09:04:19.232Z,25.22
2023-05-09T09:06:46.734Z,25.03
2023-05-09T09:09:14.759Z,23.42
2023-05-09T09:11:42.715Z,24.50
2023-05-09T09:14:22.927Z,24.68
2023-05-09T09:16:51.840Z,23.20
2023-05-09T09:19:20.249Z,23.59
2023-05-09T09:21:50.796Z,23.38
2023-05-09T09:24:22.455Z,23.67
2023-05-09T09:26:50.043Z,23.23
2023-05-09T09:29:18.734Z,23.69
2023-05-09T09:31:46.690Z,22.84
2023-05-09T09:34:19.046Z,23.74
2023-05-09T09:36:46.930Z,22.52
2023-05-09T09:39:14.243Z,23.36
2023-05-09T09:41:41.369Z,23.27
2023-05-09T09:44:09.915Z,21.81
2023-05-09T09:46:58.201Z,21.99
2023-05-09T09:49:26.774Z,22.57
2023-05-09T09:51:59.725Z,23.47
2023-05-09T09:54:28.074Z,22.59
2023-05-09T09:56:55.265Z,22.90
2023-05-09T09:59:27.346Z,21.83
2023-05-09T10:01:56.918Z,22.52
2023-05-09T10:04:24.457Z,23.57
2023-05-09T10:07:22.703Z,23.08
2023-05-09T10:09:49.687Z,22.29
2023-05-09T10:12:19.960Z,22.23
2023-05-09T10:14:48.301Z,23.49
2023-05-09T10:17:16.903Z,22.33
2023-05-09T10:19:48.607Z,22.00
2023-05-09T10:22:17.995Z,22.04
2023-05-09T10:25:01.933Z,23.12
2023-05-09T10:27:32.929Z,22.44
2023-05-09T10:30:08.128Z,23.61
2023-05-09T10:33:04.733Z,23.56
2023-05-09T10:35:36.666Z,24.21
2023-05-09T10:38:03.466Z,23.07
2023-05-09T10:40:32.050Z,22.82
2023-05-09T10:42:58.693Z,23.11
2023-05-09T10:45:26.032Z,24.66
2023-05-09T10:47:56.659Z,23.76
2023-05-09T10:50:24.016Z,24.08
2023-05-09T10:53:05.843Z,24.08
2023-05-09T10:55:56.856Z,24.24
2023-05-09T10:58:27.897Z,24.10
2023-05-09T11:00:57.389Z,24.62
2023-05-09T11:03:30.405Z,23.99
2023-05-09T11:05:58.575Z,22.83
2023-05-09T11:08:30.175Z,23.55
2023-05-09T11:11:00.616Z,23.70
2023-05-09T11:13:31.649Z,23.61
2023-05-09T11:16:01.851Z,22.54
2023-05-09T11:18:29.440Z,21.44
2023-05-09T11:20:56.774Z,22.75
2023-05-09T11:23:28.372Z,21.09
2023-05-09T11:26:08.491Z,21.29
2023-05-09T11:28:37.535Z,21.28
2023-05-09T11:31:24.413Z,21.99
2023-05-09T11:33:58.348Z,22.10
2023-05-09T11:36:29.943Z,22.20
2023-05-09T11:39:01.323Z,22.36
2023-05-09T11:41:29.202Z,24.86
2023-05-09T11:43:57.314Z,22.86
2023-05-09T11:46:24.065Z,24.35
2023-05-09T11:48:50.660Z,23.28
2023-05-09T11:51:18.933Z,24.43
2023-05-09T11:53:49.861Z,22.83
2023-05-09T11:56:17.375Z,21.89
2023-05-09T11:58:44.439Z,21.64
2023-05-09T12:01:12.352Z,22.66
2023-05-09T12:03:44.624Z,21.80
2023-05-09T12:06:18.792Z,22.74
2023-05-09T12:08:48.477Z,23.07
2023-05-09T12:11:15.472Z,22.43
2023-05-09T12:13:49.728Z,23.43
2023-05-09T12:16:17.720Z,24.88
2023-05-09T12:18:52.733Z,23.53
2023-05-09T12:21:20.278Z,23.50
2023-05-09T12:23:49.929Z,24.20
2023-05-09T12:26:18.376Z,23.57
2023-05-09T12:28:45.686Z,23.37
2023-05-09T12:31:13.179Z,23.04
2023-05-09T12:33:40.488Z,23.32
2023-05-09T12:36:11.596Z,23.42
2023-05-09T12:38:39.017Z,23.73
2023-05-09T12:41:15.430Z,23.62
2023-05-09T12:43:49.601Z,24.09
2023-05-09T12:46:20.416Z,23.92
2023-05-09T12:48:49.445Z,24.06
2023-05-09T12:51:21.176Z,23.84
2023-05-09T12:53:48.377Z,23.36
2023-05-09T12:56:17.480Z,24.29
2023-05-09T12:58:51.900Z,23.93
2023-05-09T13:01:19.688Z,23.92
2023-05-09T13:03:52.381Z,23.95
2023-05-09T13:06:19.451Z,23.60
2023-05-09T13:08:57.475Z,23.54
2023-05-09T13:11:24.623Z,24.19
2023-05-09T13:13:52.250Z,23.96
2023-05-09T13:16:19.071Z,23.07
2023-05-09T13:18:45.824Z,23.39
2023-05-09T13:21:12.466Z,23.98
2023-05-09T13:23:42.165Z,23.83
2023-05-09T13:26:08.798Z,24.02
2023-05-09T13:28:35.401Z,23.97
2023-05-09T13:31:03.076Z,24.01
2023-05-09T13:33:29.929Z,24.04
2023-05-09T13:35:56.998Z,23.33
2023-05-09T13:38:23.896Z,23.50
2023-05-09T13:40:50.413Z,23.11
2023-05-09T13:43:17.222Z,23.54
2023-05-09T13:45:44.867Z,23.08
2023-05-09T13:48:11.868Z,23.32
2023-05-09T13:50:38.474Z,23.36
2023-05-09T13:53:05.527Z,23.41
2023-05-09T13:55:32.243Z,23.16
2023-05-09T13:57:59.045Z,23.54
2023-05-09T14:00:26.603Z,23.52
2023-05-09T14:02:53.593Z,23.49
2023-05-09T14:05:20.467Z,23.03
2023-05-09T14:07:47.725Z,22.68
2023-05-09T14:10:14.604Z,22.68
2023-05-09T14:12:44.318Z,22.93
2023-05-09T14:15:11.610Z,22.60
2023-05-09T14:17:41.287Z,22.47
2023-05-09T14:20:08.755Z,22.35
2023-05-09T14:22:35.711Z,22.29
2023-05-09T14:25:02.756Z,22.20
2023-05-09T14:27:30.087Z,22.28
2023-05-09T14:30:00.394Z,22.02
2023-05-09T14:32:27.516Z,22.11
2023-05-09T14:34:56.914Z,22.15
2023-05-09T14:37:23.733Z,22.21
2023-05-09T14:39:53.118Z,22.30
2023-05-09T14:42:20.138Z,21.98
2023-05-09T14:44:47.470Z,22.02
2023-05-09T14:47:14.145Z,22.69
2023-05-09T14:49:41.362Z,22.81
2023-05-09T14:52:08.010Z,23.08
2023-05-09T14:54:35.233Z,22.99
2023-05-09T14:57:04.624Z,23.17
2023-05-09T14:59:32.118Z,22.70
2023-05-09T15:01:59.112Z,22.77
2023-05-09T15:04:31.090Z,23.08
2023-05-09T15:07:02.004Z,22.73
2023-05-09T15:09:31.730Z,23.14
2023-05-09T15:11:59.072Z,22.71
2023-05-09T15:14:25.765Z,23.17
2023-05-09T15:16:59.062Z,22.89
2023-05-09T15:19:26.527Z,22.39
2023-05-09T15:21:54.671Z,22.19
2023-05-09T15:24:22.058Z,22.32
2023-05-09T15:26:48.728Z,22.44
2023-05-09T15:29:15.301Z,22.14
2023-05-09T15:31:41.835Z,22.75
2023-05-09T15:34:08.405Z,21.89
2023-05-09T15:36:34.996Z,22.05
2023-05-09T15:39:03.796Z,21.71
2023-05-09T15:41:31.643Z,21.32
2023-05-09T15:43:58.508Z,21.49
2023-05-09T15:46:25.157Z,21.05
2023-05-09T15:48:56.085Z,20.94
2023-05-09T15:51:23.166Z,20.78
2023-05-09T15:53:50.067Z,20.53
2023-05-09T15:56:18.155Z,20.35
2023-05-09T15:58:44.788Z,20.38
2023-05-09T16:01:13.991Z,20.18
2023-05-09T16:03:41.444Z,20.33
2023-05-09T16:06:08.263Z,20.51
2023-05-09T16:08:38.047Z,20.39
2023-05-09T16:11:05.171Z,20.45
2023-05-09T16:13:33.053Z,20.65
2023-05-09T16:16:03.106Z,20.42
2023-05-09T16:18:29.730Z,20.43
2023-05-09T16:20:56.318Z,20.26
2023-05-09T16:23:23.789Z,20.51
2023-05-09T16:25:50.539Z,20.53
2023-05-09T16:28:20.358Z,20.62
2023-05-09T16:30:47.473Z,20.15
2023-05-09T16:33:14.567Z,19.86
2023-05-09T16:35:41.348Z,19.94
2023-05-09T16:38:10.104Z,19.98
2023-05-09T16:40:36.870Z,20.00
2023-05-09T16:43:03.585Z,19.93
2023-05-09T16:45:30.248Z,19.45
2023-05-09T16:48:00.656Z,20.02
2023-05-09T16:50:31.700Z,20.24
2023-05-09T16:52:58.239Z,19.96
2023-05-09T16:55:25.036Z,20.05
2023-05-09T16:57:51.605Z,19.68
2023-05-09T17:00:18.862Z,19.74
2023-05-09T17:02:45.749Z,19.59
2023-05-09T17:05:12.526Z,19.76
2023-05-09T17:07:39.202Z,19.65
2023-05-09T17:10:06.451Z,19.91
2023-05-09T17:12:33.185Z,19.79
2023-05-09T17:15:02.055Z,19.57
2023-05-09T17:17:29.267Z,19.95
2023-05-09T17:19:57.703Z,19.68
2023-05-09T17:22:24.952Z,19.38
2023-05-09T17:24:57.195Z,20.54
2023-05-09T17:27:47.074Z,20.22
2023-05-09T17:30:15.179Z,19.83
2023-05-09T17:32:43.462Z,19.68
2023-05-09T17:35:10.784Z,20.01
2023-05-09T17:37:37.801Z,20.11
2023-05-09T17:40:05.898Z,20.54
2023-05-09T17:42:33.129Z,20.01
2023-05-09T17:45:00.211Z,20.09
2023-05-09T17:47:27.709Z,19.66
2023-05-09T17:49:54.917Z,19.78
2023-05-09T17:52:22.284Z,19.73
2023-05-09T17:54:49.432Z,19.42
2023-05-09T17:57:16.734Z,19.62
2023-05-09T17:59:43.291Z,19.62
2023-05-09T18:02:10.387Z,19.69
2023-05-09T18:04:37.178Z,20.24
2023-05-09T18:07:04.333Z,20.48
2023-05-09T18:09:31.211Z,20.24
2023-05-09T18:11:59.154Z,20.41
2023-05-09T18:14:26.228Z,20.00
2023-05-09T18:16:52.846Z,19.92
2023-05-09T18:19:19.441Z,20.10
2023-05-09T18:21:46.343Z,20.35
2023-05-09T18:24:14.348Z,20.38
2023-05-09T18:26:42.030Z,20.43
2023-05-09T18:29:09.554Z,20.12
2023-05-09T18:31:38.948Z,19.77
2023-05-09T18:34:06.055Z,19.42
2023-05-09T18:36:32.990Z,19.35
2023-05-09T18:38:59.744Z,19.06
2023-05-09T18:41:26.577Z,19.08
2023-05-09T18:43:54.125Z,19.14
2023-05-09T18:46:21.220Z,19.05
2023-05-09T18:48:51.203Z,18.79
2023-05-09T18:51:19.095Z,18.87
2023-05-09T18:53:47.391Z,18.89
2023-05-09T18:56:14.323Z,19.27
2023-05-09T18:58:41.517Z,18.71
2023-05-09T19:01:11.435Z,18.78
2023-05-09T19:03:45.378Z,18.56
2023-05-09T19:06:14.793Z,18.43
2023-05-09T19:08:43.487Z,18.66
2023-05-09T19:11:11.931Z,18.82
2023-05-09T19:13:40.785Z,18.86
2023-05-09T19:16:08.666Z,18.69
2023-05-09T19:18:35.322Z,18.26
2023-05-09T19:21:01.942Z,18.46
2023-05-09T19:23:29.986Z,18.15
2023-05-09T19:25:56.601Z,18.18
2023-05-09T19:28:23.712Z,17.99
2023-05-09T19:30:50.389Z,18.10
2023-05-09T19:33:17.800Z,18.92
2023-05-09T19:35:44.517Z,18.70
2023-05-09T19:38:12.047Z,18.36
2023-05-09T19:40:39.600Z,18.35
2023-05-09T19:43:06.604Z,18.12
2023-05-09T19:45:33.305Z,17.97
2023-05-09T19:48:00.623Z,18.06
2023-05-09T19:50:27.321Z,18.13
2023-05-09T19:52:53.922Z,18.63
2023-05-09T19:55:20.864Z,19.07
2023-05-09T19:57:47.673Z,18.92
2023-05-09T20:00:14.804Z,18.70
2023-05-09T20:02:41.676Z,18.46
2023-05-09T20:05:08.851Z,17.80
2023-05-09T20:07:35.430Z,17.81
2023-05-09T20:10:02.026Z,18.06
2023-05-09T20:12:30.237Z,18.05
2023-05-09T20:14:57.297Z,17.99
2023-05-09T20:17:23.939Z,18.46
2023-05-09T20:19:53.291Z,18.66
2023-05-09T20:22:19.857Z,18.34
2023-05-09T20:24:46.546Z,18.24
2023-05-09T20:27:14.601Z,18.25
2023-05-09T20:29:41.423Z,18.40
2023-05-09T20:32:11.645Z,18.38
2023-05-09T20:34:38.278Z,18.39
2023-05-09T20:37:05.228Z,18.87
2023-05-09T20:39:34.792Z,18.09
2023-05-09T20:42:02.627Z,18.09
2023-05-09T20:44:29.473Z,18.48
2023-05-09T20:46:56.300Z,18.46
2023-05-09T20:49:23.863Z,18.44
2023-05-09T20:51:50.697Z,18.88
2023-05-09T20:54:18.484Z,19.07
2023-05-09T20:56:45.331Z,18.65
2023-05-09T20:59:12.441Z,18.12
2023-05-09T21:01:40.293Z,18.34
2023-05-09T21:04:08.340Z,19.07
2023-05-09T21:06:36.151Z,18.33
2023-05-09T21:09:03.942Z,18.46
2023-05-09T21:11:30.669Z,18.30
2023-05-09T21:13:57.224Z,18.87
2023-05-09T21:16:23.775Z,18.84
2023-05-09T21:18:50.330Z,18.47
2023-05-09T21:21:17.218Z,18.75
2023-05-09T21:23:43.818Z,18.45
2023-05-09T21:26:11.646Z,18.62
2023-05-09T21:28:38.352Z,17.57
2023-05-09T21:31:05.265Z,17.71
2023-05-09T21:33:32.192Z,17.96
2023-05-09T21:35:59.351Z,18.24
2023-05-09T21:38:26.127Z,18.55
2023-05-09T21:40:52.914Z,18.89
2023-05-09T21:43:19.652Z,18.30
2023-05-09T21:45:46.279Z,18.94
2023-05-09T21:48:13.303Z,18.52
2023-05-09T21:50:40.048Z,18.41
2023-05-09T21:53:06.688Z,18.30
2023-05-09T21:55:33.313Z,18.56
2023-05-09T21:57:59.863Z,18.52
2023-05-09T22:00:26.527Z,17.63
2023-05-09T22:02:53.390Z,18.10
2023-05-09T22:05:20.502Z,18.06
2023-05-09T22:07:47.038Z,18.42
2023-05-09T22:10:13.786Z,18.65
2023-05-09T22:12:40.506Z,18.70
2023-05-09T22:15:07.650Z,18.07
2023-05-09T22:17:34.357Z,18.75
2023-05-09T22:20:01.363Z,18.23
2023-05-09T22:22:28.257Z,18.30
2023-05-09T22:24:54.952Z,18.10
2023-05-09T22:27:22.685Z,18.14
2023-05-09T22:29:49.466Z,18.46
2023-05-09T22:32:16.455Z,18.33
2023-05-09T22:34:46.036Z,18.20
2023-05-09T22:37:12.623Z,18.43
2023-05-09T22:39:40.270Z,18.03
2023-05-09T22:42:09.324Z,18.10
2023-05-09T22:44:35.861Z,17.87
2023-05-09T22:47:02.730Z,18.82
2023-05-09T22:49:29.318Z,18.18
2023-05-09T22:51:55.930Z,18.03
2023-05-09T22:54:22.456Z,18.05
2023-05-09T22:56:49.390Z,18.37
2023-05-09T22:59:16.236Z,18.52
2023-05-09T23:01:42.817Z,18.70
2023-05-09T23:04:09.419Z,18.30
2023-05-09T23:06:36.070Z,18.38
2023-05-09T23:09:02.803Z,18.23
2023-05-09T23:11:29.568Z,18.69
2023-05-09T23:13:56.238Z,18.14
2023-05-09T23:16:22.883Z,18.34
2023-05-09T23:18:50.573Z,17.61
2023-05-09T23:21:17.170Z,18.14
2023-05-09T23:23:43.660Z,18.28
2023-05-09T23:26:10.418Z,18.05
2023-05-09T23:28:37.074Z,18.73
2023-05-09T23:31:03.838Z,18.18
2023-05-09T23:33:30.462Z,18.27
2023-05-09T23:35:57.273Z,18.59
2023-05-09T23:38:23.878Z,17.61
2023-05-09T23:40:55.748Z,17.75
2023-05-09T23:43:22.373Z,18.07
2023-05-09T23:45:49.279Z,18.29
2023-05-09T23:48:15.890Z,18.12
2023-05-09T23:50:43.057Z,17.89
2023-05-09T23:53:09.566Z,17.56
2023-05-09T23:55:36.272Z,17.44
2023-05-09T23:58:02.831Z,17.05
